createdAt,value
2018-06-09T00:01:48.510Z,0.47
2018-06-09T00:04:17.534Z,0.40
2018-06-09T00:06:46.258Z,0.40
2018-06-09T00:09:14.670Z,0.33
2018-06-09T00:11:43.285Z,0.80
2018-06-09T00:14:12.213Z,0.40
2018-06-09T00:16:40.777Z,0.30
2018-06-09T00:19:09.613Z,0.70
2018-06-09T00:21:39.714Z,0.53
2018-06-09T00:24:08.145Z,0.67
2018-06-09T00:26:36.717Z,0.40
2018-06-09T00:29:05.245Z,0.37
2018-06-09T00:31:33.793Z,0.40
2018-06-09T00:34:03.325Z,0.60
2018-06-09T00:36:32.034Z,0.60
2018-06-09T00:39:00.501Z,0.50
2018-06-09T00:41:29.060Z,0.50
2018-06-09T00:43:57.510Z,0.60
2018-06-09T00:46:25.938Z,0.60
2018-06-09T00:48:54.757Z,0.40
2018-06-09T00:51:23.377Z,0.60
2018-06-09T00:53:51.889Z,0.37
2018-06-09T00:56:32.247Z,0.40
2018-06-09T00:59:00.728Z,0.43
2018-06-09T01:01:29.146Z,0.47
2018-06-09T01:03:58.574Z,0.40
2018-06-09T01:06:27.373Z,0.50
2018-06-09T01:08:55.808Z,0.60
2018-06-09T01:11:24.629Z,0.80
2018-06-09T01:13:53.465Z,0.50
2018-06-09T01:16:21.925Z,0.40
2018-06-09T01:18:50.969Z,0.70
2018-06-09T01:21:19.794Z,0.60
2018-06-09T01:23:48.213Z,0.57
2018-06-09T01:26:16.744Z,0.40
2018-06-09T01:28:45.273Z,0.43
2018-06-09T01:31:13.702Z,0.50
2018-06-09T01:33:42.524Z,0.50
2018-06-09T01:36:11.298Z,0.57
2018-06-09T01:38:39.733Z,0.50
2018-06-09T01:41:08.277Z,0.70
2018-06-09T01:43:37.001Z,0.60
2018-06-09T01:46:05.421Z,0.90
2018-06-09T01:48:34.294Z,0.60
2018-06-09T01:51:02.713Z,0.50
2018-06-09T01:53:31.131Z,0.40
2018-06-09T01:56:00.076Z,0.53
2018-06-09T01:58:28.494Z,0.60
2018-06-09T02:00:57.005Z,0.70
2018-06-09T02:03:25.824Z,0.40
2018-06-09T02:05:54.345Z,0.60
2018-06-09T02:08:22.757Z,1.00
2018-06-09T02:10:51.817Z,0.50
2018-06-09T02:13:20.229Z,0.60
2018-06-09T02:15:48.658Z,0.53
2018-06-09T02:18:17.457Z,0.33
2018-06-09T02:20:45.898Z,0.80
2018-06-09T02:23:14.325Z,0.60
2018-06-09T02:25:43.368Z,0.80
2018-06-09T02:28:11.808Z,0.50
2018-06-09T02:30:40.489Z,0.73
2018-06-09T02:33:09.501Z,0.57
2018-06-09T02:35:37.928Z,0.50
2018-06-09T02:38:06.637Z,0.50
2018-06-09T02:40:35.798Z,0.60
2018-06-09T02:43:04.382Z,0.57
2018-06-09T02:45:32.794Z,0.60
2018-06-09T02:48:01.750Z,0.60
2018-06-09T02:50:30.626Z,0.70
2018-06-09T02:52:59.907Z,0.50
2018-06-09T02:55:28.765Z,0.70
2018-06-09T02:57:57.261Z,0.90
2018-06-09T03:00:25.730Z,0.70
2018-06-09T03:02:54.578Z,0.50
2018-06-09T03:05:23.089Z,0.50
2018-06-09T03:07:51.560Z,0.60
2018-06-09T03:10:20.581Z,0.60
2018-06-09T03:12:49.030Z,0.70
2018-06-09T03:15:17.629Z,0.57
2018-06-09T03:17:46.938Z,0.60
2018-06-09T03:20:15.769Z,0.60
2018-06-09T03:22:44.193Z,0.70
2018-06-09T03:25:12.989Z,0.70
2018-06-09T03:27:41.433Z,0.57
2018-06-09T03:30:09.857Z,0.50
2018-06-09T03:32:38.735Z,1.10
2018-06-09T03:35:07.283Z,0.50
2018-06-09T03:37:35.978Z,0.77
2018-06-09T03:40:04.790Z,0.80
2018-06-09T03:42:33.410Z,0.80
2018-06-09T03:45:01.836Z,0.90
2018-06-09T03:47:31.223Z,0.80
2018-06-09T03:49:59.981Z,1.00
2018-06-09T03:52:28.425Z,0.60
2018-06-09T03:54:57.216Z,0.93
2018-06-09T03:57:25.817Z,0.50
2018-06-09T03:59:54.354Z,0.70
2018-06-09T04:02:23.161Z,0.80
2018-06-09T04:04:51.695Z,0.90
2018-06-09T04:07:20.125Z,0.80
2018-06-09T04:09:48.975Z,0.70
2018-06-09T04:12:17.857Z,0.90
2018-06-09T04:14:46.321Z,0.50
2018-06-09T04:17:15.141Z,0.67
2018-06-09T04:19:43.910Z,1.20
2018-06-09T04:22:12.369Z,0.80
2018-06-09T04:24:41.203Z,0.60
2018-06-09T04:27:09.786Z,0.70
2018-06-09T04:29:38.245Z,0.60
2018-06-09T04:32:07.265Z,0.80
2018-06-09T04:34:35.765Z,0.50
2018-06-09T04:37:04.262Z,0.40
2018-06-09T04:39:32.901Z,0.87
2018-06-09T04:42:01.804Z,0.80
2018-06-09T04:44:30.885Z,0.70
2018-06-09T04:46:59.585Z,0.67
2018-06-09T04:49:28.319Z,0.50
2018-06-09T04:51:56.737Z,0.83
2018-06-09T04:54:25.973Z,0.80
2018-06-09T04:56:54.993Z,0.60
2018-06-09T04:59:23.441Z,0.50
2018-06-09T05:01:52.338Z,0.50
2018-06-09T05:04:21.185Z,0.60
2018-06-09T05:06:49.626Z,0.53
2018-06-09T05:09:19.618Z,0.73
2018-06-09T05:11:48.789Z,0.67
2018-06-09T05:14:17.221Z,0.80
2018-06-09T05:16:46.005Z,0.60
2018-06-09T05:19:14.559Z,0.70
2018-06-09T05:21:43.004Z,0.90
2018-06-09T05:24:11.782Z,0.37
2018-06-09T05:26:40.569Z,0.50
2018-06-09T05:29:09.066Z,0.70
2018-06-09T05:31:38.101Z,0.60
2018-06-09T05:34:07.002Z,0.73
2018-06-09T05:36:35.507Z,0.57
2018-06-09T05:39:06.069Z,0.63
2018-06-09T05:41:34.685Z,0.73
2018-06-09T05:44:03.505Z,0.67
2018-06-09T05:46:32.661Z,0.70
2018-06-09T05:49:01.113Z,0.70
2018-06-09T05:51:29.582Z,0.70
2018-06-09T05:53:58.278Z,0.70
2018-06-09T05:56:26.685Z,0.50
2018-06-09T05:58:55.353Z,0.40
2018-06-09T06:01:24.294Z,0.77
2018-06-09T06:03:52.723Z,0.60
2018-06-09T06:06:21.393Z,0.50
2018-06-09T06:08:50.073Z,0.57
2018-06-09T06:11:18.530Z,0.77
2018-06-09T06:13:46.949Z,0.60
2018-06-09T06:16:15.767Z,0.80
2018-06-09T06:18:44.260Z,0.60
2018-06-09T06:21:12.889Z,0.57
2018-06-09T06:23:41.702Z,0.53
2018-06-09T06:26:10.126Z,0.70
2018-06-09T06:28:38.530Z,0.70
2018-06-09T06:31:07.851Z,0.70
2018-06-09T06:33:36.275Z,0.77
2018-06-09T06:36:04.937Z,0.70
2018-06-09T06:38:33.631Z,0.60
2018-06-09T06:41:02.044Z,0.57
2018-06-09T06:43:30.489Z,0.70
2018-06-09T06:45:59.534Z,0.70
2018-06-09T06:48:28.073Z,0.60
2018-06-09T06:50:56.496Z,0.73
2018-06-09T06:53:25.108Z,0.77
2018-06-09T06:55:53.529Z,0.70
2018-06-09T06:58:21.946Z,1.10
2018-06-09T07:00:50.770Z,0.70
2018-06-09T07:03:19.217Z,0.80
2018-06-09T07:05:47.657Z,0.90
2018-06-09T07:08:16.817Z,0.90
2018-06-09T07:10:45.307Z,0.80
2018-06-09T07:13:13.722Z,0.60
2018-06-09T07:15:42.879Z,0.70
2018-06-09T07:18:11.801Z,0.60
2018-06-09T07:20:40.295Z,0.80
2018-06-09T07:23:09.309Z,0.77
2018-06-09T07:25:37.882Z,0.70
2018-06-09T07:28:06.329Z,0.90
2018-06-09T07:30:35.295Z,0.80
2018-06-09T07:33:03.877Z,0.90
2018-06-09T07:35:32.307Z,0.70
2018-06-09T07:38:02.586Z,0.73
2018-06-09T07:40:31.421Z,0.70
2018-06-09T07:42:59.842Z,0.80
2018-06-09T07:45:28.934Z,0.80
2018-06-09T07:47:57.556Z,0.83
2018-06-09T07:50:25.947Z,0.90
2018-06-09T07:52:55.006Z,0.90
2018-06-09T07:55:23.848Z,0.80
2018-06-09T07:57:52.273Z,0.60
2018-06-09T08:00:21.063Z,0.68
2018-06-09T08:02:49.574Z,0.78
2018-06-09T08:05:18.001Z,0.72
2018-06-09T08:07:46.633Z,0.80
2018-06-09T08:10:15.330Z,1.02
2018-06-09T08:12:43.773Z,0.72
2018-06-09T08:15:12.397Z,0.85
2018-06-09T08:17:41.105Z,0.70
2018-06-09T08:20:09.610Z,0.98
2018-06-09T08:22:39.654Z,0.85
2018-06-09T08:25:08.168Z,1.00
2018-06-09T08:27:36.573Z,0.90
2018-06-09T08:30:05.569Z,0.90
2018-06-09T08:32:34.415Z,0.82
2018-06-09T08:35:03.083Z,1.05
2018-06-09T08:37:31.721Z,0.90
2018-06-09T08:40:00.800Z,1.00
2018-06-09T08:42:29.346Z,1.27
2018-06-09T08:44:58.385Z,1.00
2018-06-09T08:47:26.801Z,1.22
2018-06-09T08:49:55.461Z,1.45
2018-06-09T08:52:24.076Z,1.05
2018-06-09T08:54:52.539Z,1.02
2018-06-09T08:57:21.098Z,0.82
2018-06-09T08:59:49.933Z,0.88
2018-06-09T09:02:18.426Z,1.00
2018-06-09T09:04:46.935Z,0.90
2018-06-09T09:07:15.601Z,0.78
2018-06-09T09:09:44.125Z,0.70
2018-06-09T09:12:12.570Z,0.75
2018-06-09T09:14:41.680Z,0.95
2018-06-09T09:17:10.145Z,0.90
2018-06-09T09:19:38.597Z,1.20
2018-06-09T09:22:08.657Z,0.93
2018-06-09T09:24:37.073Z,1.35
2018-06-09T09:27:05.801Z,0.90
2018-06-09T09:29:34.961Z,0.88
2018-06-09T09:32:03.376Z,0.85
2018-06-09T09:34:31.890Z,0.90
2018-06-09T09:37:00.646Z,0.93
2018-06-09T09:39:29.454Z,1.02
2018-06-09T09:41:58.487Z,0.95
2018-06-09T09:44:27.325Z,0.93
2018-06-09T09:46:55.789Z,1.10
2018-06-09T09:49:24.309Z,1.00
2018-06-09T09:51:53.769Z,0.98
2018-06-09T09:54:22.210Z,1.30
2018-06-09T09:56:50.693Z,0.95
2018-06-09T09:59:19.345Z,1.20
2018-06-09T10:01:47.786Z,1.00
2018-06-09T10:04:16.377Z,0.90
2018-06-09T10:06:45.489Z,0.90
2018-06-09T10:09:13.910Z,1.00
2018-06-09T10:11:42.396Z,0.98
2018-06-09T10:14:11.118Z,1.30
2018-06-09T10:16:39.531Z,1.27
2018-06-09T10:19:07.995Z,0.98
2018-06-09T10:21:36.973Z,1.10
2018-06-09T10:24:05.397Z,1.60
2018-06-09T10:26:33.867Z,1.00
2018-06-09T10:29:02.542Z,1.20
2018-06-09T10:31:30.957Z,0.93
2018-06-09T10:34:00.305Z,1.02
2018-06-09T10:36:29.333Z,1.20
2018-06-09T10:38:57.749Z,0.98
2018-06-09T10:41:26.708Z,1.42
2018-06-09T10:43:55.745Z,1.12
2018-06-09T10:46:24.150Z,0.70
2018-06-09T10:48:52.566Z,1.20
2018-06-09T10:51:21.635Z,1.30
2018-06-09T10:53:50.309Z,1.37
2018-06-09T10:56:18.726Z,1.37
2018-06-09T10:58:47.493Z,1.12
2018-06-09T11:01:15.914Z,1.10
2018-06-09T11:03:44.339Z,1.27
2018-06-09T11:06:13.214Z,1.05
2018-06-09T11:08:41.645Z,1.20
2018-06-09T11:11:10.065Z,1.15
2018-06-09T11:13:38.779Z,1.20
2018-06-09T11:16:08.001Z,0.80
2018-06-09T11:18:36.421Z,1.05
2018-06-09T11:21:05.185Z,1.45
2018-06-09T11:23:33.606Z,1.00
2018-06-09T11:26:02.119Z,1.55
2018-06-09T11:28:30.929Z,1.82
2018-06-09T11:30:59.442Z,1.90
2018-06-09T11:33:27.878Z,2.40
2018-06-09T11:35:56.445Z,2.33
2018-06-09T11:38:25.014Z,1.30
2018-06-09T11:40:53.501Z,1.40
2018-06-09T11:43:22.463Z,1.10
2018-06-09T11:45:50.949Z,1.27
2018-06-09T11:48:19.421Z,1.30
2018-06-09T11:50:48.178Z,1.15
2018-06-09T11:53:16.703Z,1.12
2018-06-09T11:55:45.405Z,1.25
2018-06-09T11:58:14.245Z,1.20
2018-06-09T12:00:42.697Z,1.02
2018-06-09T12:03:11.162Z,1.02
2018-06-09T12:05:39.783Z,1.02
2018-06-09T12:08:08.426Z,1.05
2018-06-09T12:10:37.193Z,1.20
2018-06-09T12:13:05.802Z,0.95
2018-06-09T12:15:34.270Z,0.93
2018-06-09T12:18:02.774Z,1.30
2018-06-09T12:20:31.510Z,0.80
2018-06-09T12:23:00.014Z,1.20
2018-06-09T12:25:28.707Z,1.30
2018-06-09T12:27:57.534Z,1.50
2018-06-09T12:30:25.965Z,1.17
2018-06-09T12:32:54.606Z,1.15
2018-06-09T12:35:23.595Z,1.05
2018-06-09T12:37:52.038Z,1.00
2018-06-09T12:40:20.605Z,1.10
2018-06-09T12:42:49.518Z,1.07
2018-06-09T12:45:17.998Z,1.10
2018-06-09T12:47:46.497Z,1.10
2018-06-09T12:50:15.135Z,1.00
2018-06-09T12:52:43.557Z,1.25
2018-06-09T12:55:12.177Z,0.90
2018-06-09T12:57:41.409Z,1.20
2018-06-09T13:00:09.855Z,0.93
2018-06-09T13:02:38.463Z,1.00
2018-06-09T13:05:07.561Z,1.05
2018-06-09T13:07:36.056Z,0.95
2018-06-09T13:10:04.781Z,1.47
2018-06-09T13:12:33.849Z,1.10
2018-06-09T13:15:02.262Z,1.27
2018-06-09T13:17:30.831Z,1.05
2018-06-09T13:19:59.773Z,1.12
2018-06-09T13:22:28.186Z,1.20
2018-06-09T13:24:56.715Z,1.20
2018-06-09T13:27:25.358Z,1.35
2018-06-09T13:29:53.785Z,1.57
2018-06-09T13:32:22.211Z,1.05
2018-06-09T13:34:51.113Z,1.20
2018-06-09T13:37:19.542Z,1.30
2018-06-09T13:39:48.150Z,0.98
2018-06-09T13:42:17.174Z,1.07
2018-06-09T13:44:45.602Z,2.77
2018-06-09T13:47:14.382Z,1.80
2018-06-09T13:49:43.097Z,1.07
2018-06-09T13:52:11.507Z,1.20
2018-06-09T13:54:40.331Z,1.12
2018-06-09T13:57:08.993Z,1.10
2018-06-09T13:59:37.832Z,1.30
2018-06-09T14:02:06.481Z,1.42
2018-06-09T14:04:35.341Z,1.32
2018-06-09T14:07:03.796Z,1.10
2018-06-09T14:09:32.333Z,1.37
2018-06-09T14:12:01.665Z,1.42
2018-06-09T14:14:30.149Z,1.17
2018-06-09T14:16:58.822Z,1.32
2018-06-09T14:19:27.570Z,1.10
2018-06-09T14:21:55.996Z,1.35
2018-06-09T14:24:24.709Z,1.15
2018-06-09T14:26:53.360Z,1.75
2018-06-09T14:29:21.850Z,1.42
2018-06-09T14:31:51.076Z,1.65
2018-06-09T14:34:20.187Z,1.22
2018-06-09T14:36:48.624Z,1.98
2018-06-09T14:39:17.461Z,1.40
2018-06-09T14:41:46.405Z,1.57
2018-06-09T14:44:14.821Z,1.85
2018-06-09T14:46:43.962Z,1.10
2018-06-09T14:49:13.212Z,1.50
2018-06-09T14:51:41.679Z,1.22
2018-06-09T14:54:10.426Z,1.25
2018-06-09T14:56:39.163Z,1.22
2018-06-09T14:59:07.586Z,2.20
2018-06-09T15:01:36.518Z,0.90
2018-06-09T15:04:05.263Z,1.42
2018-06-09T15:06:33.674Z,6.30
2018-06-09T15:09:02.162Z,1.70
2018-06-09T15:11:30.849Z,1.47
2018-06-09T15:13:59.242Z,1.42
2018-06-09T15:16:27.662Z,1.27
2018-06-09T15:18:56.311Z,1.20
2018-06-09T15:21:24.734Z,1.37
2018-06-09T15:23:53.409Z,1.00
2018-06-09T15:26:21.955Z,1.20
2018-06-09T15:28:50.481Z,1.47
2018-06-09T15:31:19.237Z,1.50
2018-06-09T15:33:48.376Z,1.20
2018-06-09T15:36:17.575Z,2.17
2018-06-09T15:38:46.069Z,1.62
2018-06-09T15:41:15.263Z,1.82
2018-06-09T15:43:43.725Z,2.87
2018-06-09T15:46:12.516Z,3.87
2018-06-09T15:48:41.359Z,5.87
2018-06-09T15:51:09.773Z,2.10
2018-06-09T15:53:38.574Z,1.77
2018-06-09T15:56:07.171Z,1.55
2018-06-09T15:58:35.579Z,1.70
2018-06-09T16:01:04.122Z,1.65
2018-06-09T16:03:32.910Z,1.57
2018-06-09T16:06:01.918Z,1.42
2018-06-09T16:08:30.905Z,1.50
2018-06-09T16:11:00.143Z,1.60
2018-06-09T16:13:28.579Z,1.12
2018-06-09T16:15:57.075Z,1.57
2018-06-09T16:18:25.888Z,1.70
2018-06-09T16:20:54.424Z,1.80
2018-06-09T16:23:23.090Z,1.77
2018-06-09T16:25:51.947Z,2.20
2018-06-09T16:28:20.454Z,2.62
2018-06-09T16:30:48.941Z,1.72
2018-06-09T16:33:17.582Z,2.00
2018-06-09T16:35:46.006Z,1.40
2018-06-09T16:38:14.614Z,2.20
2018-06-09T16:40:43.235Z,1.37
2018-06-09T16:43:11.663Z,1.47
2018-06-09T16:45:40.312Z,1.95
2018-06-09T16:48:09.186Z,1.75
2018-06-09T16:50:37.623Z,1.90
2018-06-09T16:53:06.055Z,1.77
2018-06-09T16:55:34.777Z,2.77
2018-06-09T16:58:03.984Z,2.90
2018-06-09T17:00:32.758Z,2.42
2018-06-09T17:03:03.450Z,1.60
2018-06-09T17:05:32.027Z,1.80
2018-06-09T17:08:01.159Z,1.60
2018-06-09T17:10:30.126Z,1.90
2018-06-09T17:12:58.539Z,1.80
2018-06-09T17:15:27.338Z,1.90
2018-06-09T17:17:55.889Z,1.90
2018-06-09T17:20:24.429Z,1.85
2018-06-09T17:22:53.003Z,1.42
2018-06-09T17:25:21.713Z,1.70
2018-06-09T17:27:50.137Z,1.60
2018-06-09T17:30:18.965Z,1.67
2018-06-09T17:32:47.506Z,1.62
2018-06-09T17:35:15.933Z,1.50
2018-06-09T17:37:44.496Z,1.90
2018-06-09T17:40:13.230Z,1.97
2018-06-09T17:42:41.661Z,1.73
2018-06-09T17:45:10.338Z,1.40
2018-06-09T17:47:39.477Z,1.53
2018-06-09T17:50:08.002Z,1.70
2018-06-09T17:52:36.701Z,1.63
2018-06-09T17:55:05.533Z,1.70
2018-06-09T17:57:34.122Z,1.70
2018-06-09T18:00:19.562Z,1.40
2018-06-09T18:02:48.201Z,1.50
2018-06-09T18:05:16.625Z,1.90
2018-06-09T18:07:45.613Z,1.80
2018-06-09T18:10:14.205Z,1.73
2018-06-09T18:12:42.643Z,1.40
2018-06-09T18:15:11.218Z,1.67
2018-06-09T18:17:40.037Z,1.47
2018-06-09T18:20:08.518Z,1.50
2018-06-09T18:22:37.399Z,1.57
2018-06-09T18:25:06.250Z,1.70
2018-06-09T18:27:34.669Z,1.70
2018-06-09T18:30:03.233Z,1.53
2018-06-09T18:32:48.204Z,1.20
2018-06-09T18:35:18.047Z,1.60
2018-06-09T18:37:46.603Z,1.63
2018-06-09T18:40:15.167Z,1.30
2018-06-09T18:42:44.255Z,1.30
2018-06-09T18:45:12.883Z,1.50
2018-06-09T18:47:41.530Z,1.70
2018-06-09T18:50:10.719Z,1.30
2018-06-09T18:52:39.208Z,1.47
2018-06-09T18:55:07.686Z,1.43
2018-06-09T18:57:36.471Z,1.73
2018-06-09T19:00:05.553Z,1.13
2018-06-09T19:02:33.969Z,1.30
2018-06-09T19:05:02.582Z,1.70
2018-06-09T19:07:31.346Z,1.50
2018-06-09T19:10:00.606Z,1.47
2018-06-09T19:12:29.154Z,1.60
2018-06-09T19:14:58.014Z,1.50
2018-06-09T19:17:26.451Z,1.80
2018-06-09T19:19:55.305Z,2.33
2018-06-09T19:22:23.861Z,1.50
2018-06-09T19:24:52.297Z,1.70
2018-06-09T19:27:20.917Z,1.53
2018-06-09T19:29:49.532Z,2.20
2018-06-09T19:32:17.965Z,1.60
2018-06-09T19:34:46.672Z,1.97
2018-06-09T19:37:15.182Z,1.70
2018-06-09T19:39:43.605Z,1.73
2018-06-09T19:42:12.202Z,1.90
2018-06-09T19:44:40.689Z,1.50
2018-06-09T19:47:09.105Z,1.73
2018-06-09T19:49:37.929Z,1.70
2018-06-09T19:52:06.769Z,1.93
2018-06-09T19:54:35.200Z,1.70
2018-06-09T19:57:03.766Z,1.70
2018-06-09T19:59:32.529Z,1.63
2018-06-09T20:02:00.997Z,1.50
2018-06-09T20:04:29.653Z,1.40
2018-06-09T20:06:58.256Z,2.20
2018-06-09T20:09:26.731Z,1.60
2018-06-09T20:11:55.543Z,1.60
2018-06-09T20:14:24.123Z,3.10
2018-06-09T20:16:52.541Z,1.60
2018-06-09T20:19:21.082Z,1.77
2018-06-09T20:21:49.597Z,1.80
2018-06-09T20:24:18.009Z,1.50
2018-06-09T20:26:46.550Z,1.60
2018-06-09T20:29:15.056Z,1.60
2018-06-09T20:31:44.143Z,1.93
2018-06-09T20:34:13.045Z,1.73
2018-06-09T20:36:41.457Z,1.80
2018-06-09T20:39:10.097Z,1.60
2018-06-09T20:41:38.785Z,1.70
2018-06-09T20:44:07.307Z,1.83
2018-06-09T20:46:35.765Z,2.17
2018-06-09T20:49:04.602Z,2.10
2018-06-09T20:51:33.077Z,1.90
2018-06-09T20:54:01.587Z,1.90
2018-06-09T20:56:30.181Z,2.10
2018-06-09T20:58:58.609Z,1.57
2018-06-09T21:01:27.193Z,2.03
2018-06-09T21:03:56.037Z,2.93
2018-06-09T21:06:24.558Z,8.27
2018-06-09T21:08:53.013Z,7.37
2018-06-09T21:11:21.754Z,3.07
2018-06-09T21:13:50.394Z,3.00
2018-06-09T21:16:18.946Z,2.00
2018-06-09T21:18:48.567Z,1.97
2018-06-09T21:21:16.981Z,1.87
2018-06-09T21:23:45.410Z,1.90
2018-06-09T21:26:14.569Z,1.90
2018-06-09T21:28:48.247Z,1.63
2018-06-09T21:31:18.182Z,2.10
2018-06-09T21:34:03.095Z,2.00
2018-06-09T21:38:42.673Z,1.77
2018-06-09T21:41:16.395Z,2.20
2018-06-09T21:43:50.408Z,2.03
2018-06-09T21:46:23.904Z,2.43
2018-06-09T21:48:52.737Z,2.07
2018-06-09T21:51:21.169Z,2.07
2018-06-09T21:53:49.622Z,1.83
2018-06-09T21:56:18.699Z,2.70
2018-06-09T21:58:47.117Z,2.20
2018-06-09T22:01:15.529Z,2.40
2018-06-09T22:03:44.512Z,2.50
2018-06-09T22:06:12.946Z,2.43
2018-06-09T22:08:41.364Z,3.27
2018-06-09T22:11:10.025Z,2.50
2018-06-09T22:13:38.495Z,2.30
2018-06-09T22:16:07.077Z,2.53
2018-06-09T22:18:36.253Z,2.33
2018-06-09T22:21:04.677Z,2.67
2018-06-09T22:23:33.097Z,2.20
2018-06-09T22:26:02.277Z,2.20
2018-06-09T22:28:30.705Z,2.53
2018-06-09T22:31:00.182Z,2.10
2018-06-09T22:33:29.013Z,2.30
2018-06-09T22:35:57.450Z,2.53
2018-06-09T22:38:25.857Z,2.57
2018-06-09T22:40:54.489Z,2.20
2018-06-09T22:43:22.923Z,2.30
2018-06-09T22:45:51.359Z,1.97
2018-06-09T22:48:20.016Z,2.47
2018-06-09T22:50:48.469Z,2.47
2018-06-09T22:53:16.907Z,2.57
2018-06-09T22:55:46.073Z,2.30
2018-06-09T22:58:14.507Z,2.13
2018-06-09T23:00:48.213Z,2.40
2018-06-09T23:03:17.181Z,2.50
2018-06-09T23:05:46.197Z,2.33
2018-06-09T23:08:14.857Z,2.23
2018-06-09T23:10:43.265Z,2.13
2018-06-09T23:13:11.702Z,2.10
2018-06-09T23:15:40.626Z,2.53
2018-06-09T23:18:09.264Z,2.07
2018-06-09T23:20:37.673Z,2.07
2018-06-09T23:23:06.681Z,1.73
2018-06-09T23:25:35.091Z,2.20
2018-06-09T23:28:03.520Z,2.33
2018-06-09T23:30:32.131Z,2.87
2018-06-09T23:33:00.556Z,2.67
2018-06-09T23:35:29.029Z,2.40
2018-06-09T23:37:58.243Z,2.30
2018-06-09T23:40:26.702Z,2.87
2018-06-09T23:42:55.121Z,2.43
2018-06-09T23:45:23.991Z,2.50
2018-06-09T23:47:52.534Z,2.40
2018-06-09T23:50:20.998Z,1.73
2018-06-09T23:52:50.657Z,2.00
2018-06-09T23:55:19.105Z,2.37
2018-06-09T23:57:47.526Z,2.00
